sensor_id;sensor_type;location;lat;lon;timestamp;P1;durP1;ratioP1;P2;durP2;ratioP2
69246;SDS011;56358;56.328;43.992;2023-02-11T00:00:15;16.92;;;7.38;;
69246;SDS011;56358;56.328;43.992;2023-02-11T00:02:16;19.55;;;7.82;;
69246;SDS011;56358;56.328;43.992;2023-02-11T00:04:17;24.15;;;9.38;;
69246;SDS011;56358;56.328;43.992;2023-02-11T00:06:18;26.65;;;9.38;;
69246;SDS011;56358;56.328;43.992;2023-02-11T00:08:18;20.38;;;7.75;;
69246;SDS011;56358;56.328;43.992;2023-02-11T00:10:19;22.90;;;8.90;;
69246;SDS011;56358;56.328;43.992;2023-02-11T00:12:20;21.50;;;8.52;;
69246;SDS011;56358;56.328;43.992;2023-02-11T00:14:20;21.17;;;8.32;;
69246;SDS011;56358;56.328;43.992;2023-02-11T00:16:21;18.95;;;8.15;;
69246;SDS011;56358;56.328;43.992;2023-02-11T00:18:22;20.05;;;8.48;;
69246;SDS011;56358;56.328;43.992;2023-02-11T00:20:23;22.85;;;8.35;;
69246;SDS011;56358;56.328;43.992;2023-02-11T00:22:23;16.40;;;7.07;;
69246;SDS011;56358;56.328;43.992;2023-02-11T00:24:24;17.85;;;7.95;;
69246;SDS011;56358;56.328;43.992;2023-02-11T00:26:25;21.25;;;7.28;;
69246;SDS011;56358;56.328;43.992;2023-02-11T00:28:28;24.08;;;9.70;;
69246;SDS011;56358;56.328;43.992;2023-02-11T00:30:29;16.80;;;7.93;;
69246;SDS011;56358;56.328;43.992;2023-02-11T00:32:30;21.25;;;9.70;;
69246;SDS011;56358;56.328;43.992;2023-02-11T00:34:31;23.92;;;8.93;;
69246;SDS011;56358;56.328;43.992;2023-02-11T00:36:32;23.45;;;8.18;;
69246;SDS011;56358;56.328;43.992;2023-02-11T00:38:33;19.67;;;8.05;;
69246;SDS011;56358;56.328;43.992;2023-02-11T00:40:33;16.88;;;8.10;;
69246;SDS011;56358;56.328;43.992;2023-02-11T00:42:34;20.13;;;9.00;;
69246;SDS011;56358;56.328;43.992;2023-02-11T00:44:34;24.70;;;8.18;;
69246;SDS011;56358;56.328;43.992;2023-02-11T00:46:35;17.45;;;7.40;;
69246;SDS011;56358;56.328;43.992;2023-02-11T00:48:36;18.50;;;7.20;;
69246;SDS011;56358;56.328;43.992;2023-02-11T00:50:36;20.88;;;8.57;;
69246;SDS011;56358;56.328;43.992;2023-02-11T00:52:37;18.83;;;7.45;;
69246;SDS011;56358;56.328;43.992;2023-02-11T00:54:37;18.20;;;7.72;;
69246;SDS011;56358;56.328;43.992;2023-02-11T00:56:39;19.02;;;7.38;;
69246;SDS011;56358;56.328;43.992;2023-02-11T00:58:40;16.80;;;7.45;;
69246;SDS011;56358;56.328;43.992;2023-02-11T01:00:40;19.20;;;8.90;;
69246;SDS011;56358;56.328;43.992;2023-02-11T01:02:41;16.20;;;7.50;;
69246;SDS011;56358;56.328;43.992;2023-02-11T01:04:42;19.00;;;7.75;;
69246;SDS011;56358;56.328;43.992;2023-02-11T01:06:42;15.27;;;6.63;;
69246;SDS011;56358;56.328;43.992;2023-02-11T01:08:43;20.40;;;7.47;;
69246;SDS011;56358;56.328;43.992;2023-02-11T01:10:44;19.02;;;7.53;;
69246;SDS011;56358;56.328;43.992;2023-02-11T01:12:44;22.10;;;9.00;;
69246;SDS011;56358;56.328;43.992;2023-02-11T01:14:45;20.50;;;7.78;;
69246;SDS011;56358;56.328;43.992;2023-02-11T01:16:46;19.92;;;8.32;;
69246;SDS011;56358;56.328;43.992;2023-02-11T01:18:46;24.20;;;9.10;;
69246;SDS011;56358;56.328;43.992;2023-02-11T01:20:47;15.90;;;6.68;;
69246;SDS011;56358;56.328;43.992;2023-02-11T01:22:47;19.27;;;8.18;;
69246;SDS011;56358;56.328;43.992;2023-02-11T01:24:48;20.92;;;8.15;;
69246;SDS011;56358;56.328;43.992;2023-02-11T01:26:49;22.58;;;8.07;;
69246;SDS011;56358;56.328;43.992;2023-02-11T01:28:49;21.75;;;8.63;;
69246;SDS011;56358;56.328;43.992;2023-02-11T01:30:50;17.30;;;8.13;;
69246;SDS011;56358;56.328;43.992;2023-02-11T01:32:51;19.80;;;8.10;;
69246;SDS011;56358;56.328;43.992;2023-02-11T01:34:52;20.88;;;8.70;;
69246;SDS011;56358;56.328;43.992;2023-02-11T01:36:56;19.67;;;7.55;;
69246;SDS011;56358;56.328;43.992;2023-02-11T01:38:58;11.25;;;6.70;;
69246;SDS011;56358;56.328;43.992;2023-02-11T01:41:00;18.08;;;8.50;;
69246;SDS011;56358;56.328;43.992;2023-02-11T01:43:03;18.75;;;8.55;;
69246;SDS011;56358;56.328;43.992;2023-02-11T01:47:41;21.85;;;7.80;;
69246;SDS011;56358;56.328;43.992;2023-02-11T01:49:46;18.67;;;7.47;;
69246;SDS011;56358;56.328;43.992;2023-02-11T01:51:51;18.05;;;7.60;;
69246;SDS011;56358;56.328;43.992;2023-02-11T01:54:01;22.42;;;9.05;;
69246;SDS011;56358;56.328;43.992;2023-02-11T01:56:22;19.13;;;8.85;;
69246;SDS011;56358;56.328;43.992;2023-02-11T01:58:44;18.10;;;7.70;;
69246;SDS011;56358;56.328;43.992;2023-02-11T02:00:48;15.07;;;6.65;;
69246;SDS011;56358;56.328;43.992;2023-02-11T02:05:06;19.88;;;8.82;;
69246;SDS011;56358;56.328;43.992;2023-02-11T02:07:16;20.73;;;8.63;;
69246;SDS011;56358;56.328;43.992;2023-02-11T02:09:26;23.48;;;9.10;;
69246;SDS011;56358;56.328;43.992;2023-02-11T02:11:31;24.52;;;8.77;;
69246;SDS011;56358;56.328;43.992;2023-02-11T02:13:32;22.77;;;9.63;;
69246;SDS011;56358;56.328;43.992;2023-02-11T02:15:58;22.55;;;8.95;;
69246;SDS011;56358;56.328;43.992;2023-02-11T02:25:43;15.57;;;6.93;;
69246;SDS011;56358;56.328;43.992;2023-02-11T02:27:54;20.52;;;8.80;;
69246;SDS011;56358;56.328;43.992;2023-02-11T02:39:27;19.30;;;7.78;;
69246;SDS011;56358;56.328;43.992;2023-02-11T02:41:34;22.52;;;9.05;;
69246;SDS011;56358;56.328;43.992;2023-02-11T02:43:39;19.77;;;7.63;;
69246;SDS011;56358;56.328;43.992;2023-02-11T02:45:43;22.42;;;8.40;;
69246;SDS011;56358;56.328;43.992;2023-02-11T02:47:43;19.65;;;8.63;;
69246;SDS011;56358;56.328;43.992;2023-02-11T02:49:44;22.98;;;10.10;;
69246;SDS011;56358;56.328;43.992;2023-02-11T02:54:17;17.63;;;7.28;;
69246;SDS011;56358;56.328;43.992;2023-02-11T02:56:36;24.15;;;9.00;;
69246;SDS011;56358;56.328;43.992;2023-02-11T02:58:53;19.90;;;8.38;;
69246;SDS011;56358;56.328;43.992;2023-02-11T03:01:02;23.38;;;9.13;;
69246;SDS011;56358;56.328;43.992;2023-02-11T03:10:21;20.60;;;8.18;;
69246;SDS011;56358;56.328;43.992;2023-02-11T03:12:24;15.95;;;7.63;;
69246;SDS011;56358;56.328;43.992;2023-02-11T03:14:29;23.13;;;8.30;;
69246;SDS011;56358;56.328;43.992;2023-02-11T03:16:31;19.55;;;9.65;;
69246;SDS011;56358;56.328;43.992;2023-02-11T03:18:38;19.25;;;7.72;;
69246;SDS011;56358;56.328;43.992;2023-02-11T03:20:42;23.15;;;9.07;;
69246;SDS011;56358;56.328;43.992;2023-02-11T03:24:47;22.63;;;9.30;;
69246;SDS011;56358;56.328;43.992;2023-02-11T03:26:49;17.60;;;7.40;;
69246;SDS011;56358;56.328;43.992;2023-02-11T03:29:00;20.42;;;8.55;;
69246;SDS011;56358;56.328;43.992;2023-02-11T03:31:19;22.25;;;9.07;;
69246;SDS011;56358;56.328;43.992;2023-02-11T03:33:29;20.00;;;8.15;;
69246;SDS011;56358;56.328;43.992;2023-02-11T03:35:38;22.00;;;9.60;;
69246;SDS011;56358;56.328;43.992;2023-02-11T03:39:53;21.80;;;8.35;;
69246;SDS011;56358;56.328;43.992;2023-02-11T03:42:07;22.15;;;8.48;;
69246;SDS011;56358;56.328;43.992;2023-02-11T03:44:11;18.60;;;8.70;;
69246;SDS011;56358;56.328;43.992;2023-02-11T03:46:15;20.15;;;8.90;;
69246;SDS011;56358;56.328;43.992;2023-02-11T03:48:26;20.67;;;9.65;;
69246;SDS011;56358;56.328;43.992;2023-02-11T03:52:35;17.25;;;6.95;;
69246;SDS011;56358;56.328;43.992;2023-02-11T03:54:37;22.85;;;8.60;;
69246;SDS011;56358;56.328;43.992;2023-02-11T03:56:51;22.80;;;9.07;;
69246;SDS011;56358;56.328;43.992;2023-02-11T03:58:54;24.92;;;9.35;;
69246;SDS011;56358;56.328;43.992;2023-02-11T04:00:55;18.35;;;9.13;;
69246;SDS011;56358;56.328;43.992;2023-02-11T04:02:56;19.92;;;9.05;;
69246;SDS011;56358;56.328;43.992;2023-02-11T04:04:56;20.58;;;8.43;;
69246;SDS011;56358;56.328;43.992;2023-02-11T04:06:57;22.20;;;9.52;;
69246;SDS011;56358;56.328;43.992;2023-02-11T04:08:57;22.77;;;8.57;;
69246;SDS011;56358;56.328;43.992;2023-02-11T04:10:58;24.95;;;8.82;;
69246;SDS011;56358;56.328;43.992;2023-02-11T04:12:59;21.30;;;8.55;;
69246;SDS011;56358;56.328;43.992;2023-02-11T04:14:59;17.13;;;5.93;;
69246;SDS011;56358;56.328;43.992;2023-02-11T04:17:00;18.63;;;8.93;;
69246;SDS011;56358;56.328;43.992;2023-02-11T04:19:01;24.42;;;9.68;;
69246;SDS011;56358;56.328;43.992;2023-02-11T04:21:01;18.00;;;8.18;;
69246;SDS011;56358;56.328;43.992;2023-02-11T04:23:02;19.30;;;8.90;;
69246;SDS011;56358;56.328;43.992;2023-02-11T04:25:03;22.48;;;9.38;;
69246;SDS011;56358;56.328;43.992;2023-02-11T04:27:04;21.23;;;9.18;;
69246;SDS011;56358;56.328;43.992;2023-02-11T04:29:04;24.05;;;9.57;;
69246;SDS011;56358;56.328;43.992;2023-02-11T04:31:05;19.73;;;8.27;;
69246;SDS011;56358;56.328;43.992;2023-02-11T04:33:06;22.00;;;8.88;;
69246;SDS011;56358;56.328;43.992;2023-02-11T04:35:07;22.20;;;9.07;;
69246;SDS011;56358;56.328;43.992;2023-02-11T04:37:07;16.25;;;6.22;;
69246;SDS011;56358;56.328;43.992;2023-02-11T04:39:08;19.27;;;6.53;;
69246;SDS011;56358;56.328;43.992;2023-02-11T04:41:09;23.58;;;9.82;;
69246;SDS011;56358;56.328;43.992;2023-02-11T04:43:09;21.58;;;9.02;;
69246;SDS011;56358;56.328;43.992;2023-02-11T04:45:10;23.33;;;9.38;;
69246;SDS011;56358;56.328;43.992;2023-02-11T04:47:10;21.70;;;9.32;;
69246;SDS011;56358;56.328;43.992;2023-02-11T04:49:14;20.45;;;9.65;;
69246;SDS011;56358;56.328;43.992;2023-02-11T04:51:16;23.70;;;9.15;;
69246;SDS011;56358;56.328;43.992;2023-02-11T04:53:17;22.40;;;8.98;;
69246;SDS011;56358;56.328;43.992;2023-02-11T04:55:18;17.70;;;7.78;;
69246;SDS011;56358;56.328;43.992;2023-02-11T04:57:18;23.35;;;9.10;;
69246;SDS011;56358;56.328;43.992;2023-02-11T04:59:19;21.23;;;8.32;;
69246;SDS011;56358;56.328;43.992;2023-02-11T05:01:19;22.10;;;8.43;;
69246;SDS011;56358;56.328;43.992;2023-02-11T05:03:20;19.15;;;8.10;;
69246;SDS011;56358;56.328;43.992;2023-02-11T05:05:21;21.58;;;8.90;;
69246;SDS011;56358;56.328;43.992;2023-02-11T05:07:21;19.00;;;8.25;;
69246;SDS011;56358;56.328;43.992;2023-02-11T05:09:22;24.73;;;9.85;;
69246;SDS011;56358;56.328;43.992;2023-02-11T05:11:23;18.75;;;7.72;;
69246;SDS011;56358;56.328;43.992;2023-02-11T05:13:24;22.90;;;8.80;;
69246;SDS011;56358;56.328;43.992;2023-02-11T05:15:25;20.85;;;8.73;;
69246;SDS011;56358;56.328;43.992;2023-02-11T05:17:26;21.52;;;8.35;;
69246;SDS011;56358;56.328;43.992;2023-02-11T05:19:27;22.52;;;8.85;;
69246;SDS011;56358;56.328;43.992;2023-02-11T05:21:27;19.10;;;7.82;;
69246;SDS011;56358;56.328;43.992;2023-02-11T05:23:29;15.55;;;7.13;;
69246;SDS011;56358;56.328;43.992;2023-02-11T05:25:30;17.15;;;7.72;;
69246;SDS011;56358;56.328;43.992;2023-02-11T05:27:30;23.90;;;9.02;;
69246;SDS011;56358;56.328;43.992;2023-02-11T05:29:31;19.25;;;7.82;;
69246;SDS011;56358;56.328;43.992;2023-02-11T05:31:32;19.45;;;7.80;;
69246;SDS011;56358;56.328;43.992;2023-02-11T05:33:32;19.65;;;7.88;;
69246;SDS011;56358;56.328;43.992;2023-02-11T05:35:33;18.33;;;8.38;;
69246;SDS011;56358;56.328;43.992;2023-02-11T05:37:34;23.70;;;8.57;;
69246;SDS011;56358;56.328;43.992;2023-02-11T05:39:34;19.17;;;8.13;;
69246;SDS011;56358;56.328;43.992;2023-02-11T05:41:35;20.05;;;8.65;;
69246;SDS011;56358;56.328;43.992;2023-02-11T05:43:37;21.67;;;8.85;;
69246;SDS011;56358;56.328;43.992;2023-02-11T05:45:37;19.60;;;8.10;;
69246;SDS011;56358;56.328;43.992;2023-02-11T05:47:38;18.38;;;7.78;;
69246;SDS011;56358;56.328;43.992;2023-02-11T05:49:39;15.77;;;6.90;;
69246;SDS011;56358;56.328;43.992;2023-02-11T05:51:39;17.98;;;7.80;;
69246;SDS011;56358;56.328;43.992;2023-02-11T05:53:40;19.73;;;8.35;;
69246;SDS011;56358;56.328;43.992;2023-02-11T05:55:40;19.75;;;8.60;;
69246;SDS011;56358;56.328;43.992;2023-02-11T05:57:41;18.48;;;7.30;;
69246;SDS011;56358;56.328;43.992;2023-02-11T05:59:42;20.98;;;7.65;;
69246;SDS011;56358;56.328;43.992;2023-02-11T06:01:42;18.40;;;9.15;;
69246;SDS011;56358;56.328;43.992;2023-02-11T06:03:43;18.52;;;8.48;;
69246;SDS011;56358;56.328;43.992;2023-02-11T06:05:44;19.05;;;8.05;;
69246;SDS011;56358;56.328;43.992;2023-02-11T06:07:45;21.23;;;8.30;;
69246;SDS011;56358;56.328;43.992;2023-02-11T06:09:45;19.02;;;8.48;;
69246;SDS011;56358;56.328;43.992;2023-02-11T06:11:46;19.02;;;7.93;;
69246;SDS011;56358;56.328;43.992;2023-02-11T06:13:46;19.20;;;7.75;;
69246;SDS011;56358;56.328;43.992;2023-02-11T06:16:00;21.40;;;9.02;;
69246;SDS011;56358;56.328;43.992;2023-02-11T06:18:01;20.65;;;8.07;;
69246;SDS011;56358;56.328;43.992;2023-02-11T06:20:03;20.98;;;7.85;;
69246;SDS011;56358;56.328;43.992;2023-02-11T06:22:06;18.25;;;9.00;;
69246;SDS011;56358;56.328;43.992;2023-02-11T06:24:06;17.60;;;8.15;;
69246;SDS011;56358;56.328;43.992;2023-02-11T06:26:17;24.52;;;9.27;;
69246;SDS011;56358;56.328;43.992;2023-02-11T09:21:23;13.65;;;5.35;;
69246;SDS011;56358;56.328;43.992;2023-02-11T09:23:24;15.30;;;5.25;;
69246;SDS011;56358;56.328;43.992;2023-02-11T09:25:25;14.30;;;4.97;;
69246;SDS011;56358;56.328;43.992;2023-02-11T09:27:26;15.00;;;5.30;;
69246;SDS011;56358;56.328;43.992;2023-02-11T09:29:26;13.75;;;5.50;;
69246;SDS011;56358;56.328;43.992;2023-02-11T09:31:27;18.17;;;5.88;;
69246;SDS011;56358;56.328;43.992;2023-02-11T09:33:29;14.68;;;5.75;;
69246;SDS011;56358;56.328;43.992;2023-02-11T09:35:31;12.40;;;5.63;;
69246;SDS011;56358;56.328;43.992;2023-02-11T09:37:33;14.88;;;5.45;;
69246;SDS011;56358;56.328;43.992;2023-02-11T09:39:34;14.27;;;5.72;;
69246;SDS011;56358;56.328;43.992;2023-02-11T09:41:40;13.20;;;5.53;;
69246;SDS011;56358;56.328;43.992;2023-02-11T09:43:54;15.98;;;5.50;;
69246;SDS011;56358;56.328;43.992;2023-02-11T09:45:57;13.60;;;5.38;;
69246;SDS011;56358;56.328;43.992;2023-02-11T09:48:03;15.65;;;5.05;;
69246;SDS011;56358;56.328;43.992;2023-02-11T09:50:13;14.02;;;6.30;;
69246;SDS011;56358;56.328;43.992;2023-02-11T09:52:29;16.98;;;5.70;;
69246;SDS011;56358;56.328;43.992;2023-02-11T09:54:35;11.25;;;4.95;;
69246;SDS011;56358;56.328;43.992;2023-02-11T09:56:42;15.40;;;5.85;;
69246;SDS011;56358;56.328;43.992;2023-02-11T09:58:43;14.63;;;6.03;;
69246;SDS011;56358;56.328;43.992;2023-02-11T10:00:46;13.30;;;5.68;;
69246;SDS011;56358;56.328;43.992;2023-02-11T10:21:48;10.25;;;4.93;;
69246;SDS011;56358;56.328;43.992;2023-02-11T10:24:08;9.35;;;4.05;;
69246;SDS011;56358;56.328;43.992;2023-02-11T10:26:12;11.02;;;4.95;;
69246;SDS011;56358;56.328;43.992;2023-02-11T10:28:17;14.98;;;4.80;;
69246;SDS011;56358;56.328;43.992;2023-02-11T10:30:25;9.32;;;4.32;;
69246;SDS011;56358;56.328;43.992;2023-02-11T10:35:01;8.90;;;3.80;;
69246;SDS011;56358;56.328;43.992;2023-02-11T10:37:03;12.18;;;4.97;;
69246;SDS011;56358;56.328;43.992;2023-02-11T10:39:10;11.57;;;4.07;;
69246;SDS011;56358;56.328;43.992;2023-02-11T10:41:19;12.10;;;4.43;;
69246;SDS011;56358;56.328;43.992;2023-02-11T10:43:25;10.93;;;4.30;;
69246;SDS011;56358;56.328;43.992;2023-02-11T10:47:53;11.30;;;4.60;;
69246;SDS011;56358;56.328;43.992;2023-02-11T10:49:54;8.82;;;4.50;;
69246;SDS011;56358;56.328;43.992;2023-02-11T10:52:24;11.50;;;5.20;;
69246;SDS011;56358;56.328;43.992;2023-02-11T10:54:26;17.20;;;5.80;;
69246;SDS011;56358;56.328;43.992;2023-02-11T10:56:27;11.98;;;5.38;;
69246;SDS011;56358;56.328;43.992;2023-02-11T10:58:30;14.50;;;5.38;;
69246;SDS011;56358;56.328;43.992;2023-02-11T11:00:39;17.55;;;6.38;;
69246;SDS011;56358;56.328;43.992;2023-02-11T11:02:42;15.05;;;5.50;;
69246;SDS011;56358;56.328;43.992;2023-02-11T11:04:45;14.40;;;6.50;;
69246;SDS011;56358;56.328;43.992;2023-02-11T11:06:46;15.32;;;5.85;;
69246;SDS011;56358;56.328;43.992;2023-02-11T11:08:49;12.63;;;5.15;;
69246;SDS011;56358;56.328;43.992;2023-02-11T11:15:23;12.82;;;5.82;;
69246;SDS011;56358;56.328;43.992;2023-02-11T11:17:26;16.65;;;6.10;;
69246;SDS011;56358;56.328;43.992;2023-02-11T11:19:30;15.82;;;6.10;;
69246;SDS011;56358;56.328;43.992;2023-02-11T11:23:45;11.35;;;4.88;;
69246;SDS011;56358;56.328;43.992;2023-02-11T11:26:01;15.13;;;5.30;;
69246;SDS011;56358;56.328;43.992;2023-02-11T11:28:04;14.57;;;5.60;;
69246;SDS011;56358;56.328;43.992;2023-02-11T11:30:05;13.82;;;5.97;;
69246;SDS011;56358;56.328;43.992;2023-02-11T11:32:26;10.65;;;5.13;;
69246;SDS011;56358;56.328;43.992;2023-02-11T11:34:39;14.80;;;5.80;;
69246;SDS011;56358;56.328;43.992;2023-02-11T11:36:41;13.38;;;5.40;;
69246;SDS011;56358;56.328;43.992;2023-02-11T11:38:47;13.15;;;5.50;;
69246;SDS011;56358;56.328;43.992;2023-02-11T11:43:20;14.82;;;5.05;;
69246;SDS011;56358;56.328;43.992;2023-02-11T11:45:23;10.57;;;4.07;;
69246;SDS011;56358;56.328;43.992;2023-02-11T11:47:28;9.65;;;4.70;;
69246;SDS011;56358;56.328;43.992;2023-02-11T11:49:36;14.02;;;5.22;;
69246;SDS011;56358;56.328;43.992;2023-02-11T11:51:46;11.98;;;5.07;;
69246;SDS011;56358;56.328;43.992;2023-02-11T11:54:16;14.00;;;5.22;;
69246;SDS011;56358;56.328;43.992;2023-02-11T11:56:19;9.05;;;4.53;;
69246;SDS011;56358;56.328;43.992;2023-02-11T11:58:21;16.02;;;4.95;;
69246;SDS011;56358;56.328;43.992;2023-02-11T12:00:25;12.45;;;4.22;;
69246;SDS011;56358;56.328;43.992;2023-02-11T12:06:36;10.70;;;4.25;;
69246;SDS011;56358;56.328;43.992;2023-02-11T12:09:06;11.88;;;5.05;;
69246;SDS011;56358;56.328;43.992;2023-02-11T12:21:10;12.73;;;4.90;;
69246;SDS011;56358;56.328;43.992;2023-02-11T12:23:01;13.38;;;4.53;;
69246;SDS011;56358;56.328;43.992;2023-02-11T12:27:39;13.90;;;5.40;;
69246;SDS011;56358;56.328;43.992;2023-02-11T12:43:53;13.23;;;5.20;;
69246;SDS011;56358;56.328;43.992;2023-02-11T12:50:52;11.85;;;4.07;;
69246;SDS011;56358;56.328;43.992;2023-02-11T12:53:02;11.75;;;4.60;;
69246;SDS011;56358;56.328;43.992;2023-02-11T12:55:23;12.00;;;5.03;;
69246;SDS011;56358;56.328;43.992;2023-02-11T12:57:28;16.88;;;4.75;;
69246;SDS011;56358;56.328;43.992;2023-02-11T13:01:43;9.57;;;4.25;;
69246;SDS011;56358;56.328;43.992;2023-02-11T13:05:59;10.15;;;4.13;;
69246;SDS011;56358;56.328;43.992;2023-02-11T13:08:07;8.88;;;4.13;;
69246;SDS011;56358;56.328;43.992;2023-02-11T13:12:53;9.75;;;4.57;;
69246;SDS011;56358;56.328;43.992;2023-02-11T13:15:14;14.13;;;4.18;;
69246;SDS011;56358;56.328;43.992;2023-02-11T13:17:24;10.88;;;4.40;;
69246;SDS011;56358;56.328;43.992;2023-02-11T13:19:37;11.88;;;4.18;;
69246;SDS011;56358;56.328;43.992;2023-02-11T13:23:51;9.90;;;3.78;;
69246;SDS011;56358;56.328;43.992;2023-02-11T13:28:26;11.75;;;4.88;;
69246;SDS011;56358;56.328;43.992;2023-02-11T13:30:52;10.15;;;4.38;;
69246;SDS011;56358;56.328;43.992;2023-02-11T13:33:02;16.20;;;3.83;;
69246;SDS011;56358;56.328;43.992;2023-02-11T13:35:24;12.93;;;5.07;;
69246;SDS011;56358;56.328;43.992;2023-02-11T13:37:37;11.98;;;4.75;;
69246;SDS011;56358;56.328;43.992;2023-02-11T13:39:39;15.55;;;4.95;;
69246;SDS011;56358;56.328;43.992;2023-02-11T13:41:40;10.07;;;4.50;;
69246;SDS011;56358;56.328;43.992;2023-02-11T13:43:41;10.70;;;4.00;;
69246;SDS011;56358;56.328;43.992;2023-02-11T13:45:45;16.17;;;4.35;;
69246;SDS011;56358;56.328;43.992;2023-02-11T13:47:47;9.82;;;4.20;;
69246;SDS011;56358;56.328;43.992;2023-02-11T13:49:49;11.07;;;4.03;;
69246;SDS011;56358;56.328;43.992;2023-02-11T13:51:52;11.55;;;4.32;;
69246;SDS011;56358;56.328;43.992;2023-02-11T13:53:55;11.93;;;4.53;;
69246;SDS011;56358;56.328;43.992;2023-02-11T13:56:04;10.35;;;3.65;;
69246;SDS011;56358;56.328;43.992;2023-02-11T14:02:33;8.93;;;3.53;;
69246;SDS011;56358;56.328;43.992;2023-02-11T14:09:46;11.40;;;4.50;;
69246;SDS011;56358;56.328;43.992;2023-02-11T14:11:50;10.52;;;4.03;;
69246;SDS011;56358;56.328;43.992;2023-02-11T14:14:13;10.73;;;3.92;;
69246;SDS011;56358;56.328;43.992;2023-02-11T14:16:17;17.25;;;4.95;;
69246;SDS011;56358;56.328;43.992;2023-02-11T14:18:35;6.32;;;3.22;;
69246;SDS011;56358;56.328;43.992;2023-02-11T14:20:40;10.18;;;3.85;;
69246;SDS011;56358;56.328;43.992;2023-02-11T14:22:45;12.13;;;3.83;;
69246;SDS011;56358;56.328;43.992;2023-02-11T14:24:58;12.23;;;4.50;;
69246;SDS011;56358;56.328;43.992;2023-02-11T14:27:13;11.60;;;4.07;;
69246;SDS011;56358;56.328;43.992;2023-02-11T14:29:50;9.52;;;3.95;;
69246;SDS011;56358;56.328;43.992;2023-02-11T14:36:49;9.10;;;3.63;;
69246;SDS011;56358;56.328;43.992;2023-02-11T14:41:08;9.98;;;4.28;;
69246;SDS011;56358;56.328;43.992;2023-02-11T14:43:16;9.00;;;3.10;;
69246;SDS011;56358;56.328;43.992;2023-02-11T14:45:22;9.95;;;3.63;;
69246;SDS011;56358;56.328;43.992;2023-02-11T14:49:52;9.20;;;3.00;;
69246;SDS011;56358;56.328;43.992;2023-02-11T14:51:55;8.07;;;3.05;;
69246;SDS011;56358;56.328;43.992;2023-02-11T14:54:22;8.60;;;3.47;;
69246;SDS011;56358;56.328;43.992;2023-02-11T14:56:27;6.93;;;2.58;;
69246;SDS011;56358;56.328;43.992;2023-02-11T14:58:30;6.60;;;2.70;;
69246;SDS011;56358;56.328;43.992;2023-02-11T15:00:31;8.30;;;3.10;;
69246;SDS011;56358;56.328;43.992;2023-02-11T15:02:34;7.50;;;3.00;;
69246;SDS011;56358;56.328;43.992;2023-02-11T15:04:36;7.88;;;3.08;;
69246;SDS011;56358;56.328;43.992;2023-02-11T15:06:39;8.77;;;2.53;;
69246;SDS011;56358;56.328;43.992;2023-02-11T15:08:47;6.35;;;2.85;;
69246;SDS011;56358;56.328;43.992;2023-02-11T15:11:16;5.53;;;2.53;;
69246;SDS011;56358;56.328;43.992;2023-02-11T15:13:19;8.00;;;2.95;;
69246;SDS011;56358;56.328;43.992;2023-02-11T15:15:26;7.88;;;3.17;;
69246;SDS011;56358;56.328;43.992;2023-02-11T15:17:29;8.00;;;2.70;;
69246;SDS011;56358;56.328;43.992;2023-02-11T15:19:31;6.95;;;2.83;;
69246;SDS011;56358;56.328;43.992;2023-02-11T15:21:35;8.43;;;3.00;;
69246;SDS011;56358;56.328;43.992;2023-02-11T15:23:36;6.30;;;2.78;;
69246;SDS011;56358;56.328;43.992;2023-02-11T15:25:44;7.38;;;2.97;;
69246;SDS011;56358;56.328;43.992;2023-02-11T15:27:53;8.98;;;3.20;;
69246;SDS011;56358;56.328;43.992;2023-02-11T15:29:56;6.70;;;2.70;;
69246;SDS011;56358;56.328;43.992;2023-02-11T15:34:06;6.55;;;2.97;;
69246;SDS011;56358;56.328;43.992;2023-02-11T15:36:09;7.53;;;3.13;;
69246;SDS011;56358;56.328;43.992;2023-02-11T15:38:11;6.55;;;2.60;;
69246;SDS011;56358;56.328;43.992;2023-02-11T15:40:20;8.18;;;3.30;;
69246;SDS011;56358;56.328;43.992;2023-02-11T15:42:32;7.78;;;3.20;;
69246;SDS011;56358;56.328;43.992;2023-02-11T15:44:32;10.18;;;4.53;;
69246;SDS011;56358;56.328;43.992;2023-02-11T15:46:36;10.23;;;4.40;;
69246;SDS011;56358;56.328;43.992;2023-02-11T15:48:43;16.38;;;7.43;;
69246;SDS011;56358;56.328;43.992;2023-02-11T15:50:52;12.57;;;4.15;;
69246;SDS011;56358;56.328;43.992;2023-02-11T15:52:59;7.38;;;3.80;;
69246;SDS011;56358;56.328;43.992;2023-02-11T15:57:13;11.00;;;4.00;;
69246;SDS011;56358;56.328;43.992;2023-02-11T15:59:27;11.50;;;4.45;;
69246;SDS011;56358;56.328;43.992;2023-02-11T16:01:37;10.82;;;4.10;;
69246;SDS011;56358;56.328;43.992;2023-02-11T16:03:39;11.25;;;4.57;;
69246;SDS011;56358;56.328;43.992;2023-02-11T16:05:41;10.20;;;3.92;;
69246;SDS011;56358;56.328;43.992;2023-02-11T16:07:46;12.55;;;5.00;;
69246;SDS011;56358;56.328;43.992;2023-02-11T16:09:55;13.45;;;4.80;;
69246;SDS011;56358;56.328;43.992;2023-02-11T16:12:01;9.55;;;4.22;;
69246;SDS011;56358;56.328;43.992;2023-02-11T16:14:38;13.85;;;5.60;;
69246;SDS011;56358;56.328;43.992;2023-02-11T16:16:41;18.17;;;6.03;;
69246;SDS011;56358;56.328;43.992;2023-02-11T16:18:49;14.18;;;4.78;;
69246;SDS011;56358;56.328;43.992;2023-02-11T16:22:52;11.57;;;4.53;;
69246;SDS011;56358;56.328;43.992;2023-02-11T16:24:54;14.43;;;5.55;;
69246;SDS011;56358;56.328;43.992;2023-02-11T16:26:59;17.30;;;5.38;;
69246;SDS011;56358;56.328;43.992;2023-02-11T16:29:10;11.32;;;4.43;;
69246;SDS011;56358;56.328;43.992;2023-02-11T16:31:14;15.50;;;5.75;;
69246;SDS011;56358;56.328;43.992;2023-02-11T16:33:15;15.35;;;6.22;;
69246;SDS011;56358;56.328;43.992;2023-02-11T16:35:15;17.70;;;6.05;;
69246;SDS011;56358;56.328;43.992;2023-02-11T16:37:17;16.52;;;6.80;;
69246;SDS011;56358;56.328;43.992;2023-02-11T16:39:18;13.55;;;6.38;;
69246;SDS011;56358;56.328;43.992;2023-02-11T16:41:22;18.45;;;5.85;;
69246;SDS011;56358;56.328;43.992;2023-02-11T16:43:23;14.48;;;5.55;;
69246;SDS011;56358;56.328;43.992;2023-02-11T16:45:24;18.90;;;6.22;;
69246;SDS011;56358;56.328;43.992;2023-02-11T16:47:26;13.15;;;6.47;;
69246;SDS011;56358;56.328;43.992;2023-02-11T16:51:33;14.75;;;5.70;;
69246;SDS011;56358;56.328;43.992;2023-02-11T16:53:33;13.48;;;6.35;;
69246;SDS011;56358;56.328;43.992;2023-02-11T16:55:34;14.00;;;5.50;;
69246;SDS011;56358;56.328;43.992;2023-02-11T16:57:35;17.90;;;5.50;;
69246;SDS011;56358;56.328;43.992;2023-02-11T16:59:35;17.23;;;6.28;;
69246;SDS011;56358;56.328;43.992;2023-02-11T17:01:39;22.02;;;6.10;;
69246;SDS011;56358;56.328;43.992;2023-02-11T17:03:41;19.95;;;6.13;;
69246;SDS011;56358;56.328;43.992;2023-02-11T17:05:43;19.55;;;8.40;;
69246;SDS011;56358;56.328;43.992;2023-02-11T17:07:44;17.17;;;6.53;;
69246;SDS011;56358;56.328;43.992;2023-02-11T17:09:45;13.27;;;6.18;;
69246;SDS011;56358;56.328;43.992;2023-02-11T17:11:46;15.93;;;5.82;;
69246;SDS011;56358;56.328;43.992;2023-02-11T17:13:47;16.60;;;6.05;;
69246;SDS011;56358;56.328;43.992;2023-02-11T17:15:48;18.83;;;6.85;;
69246;SDS011;56358;56.328;43.992;2023-02-11T17:17:48;20.08;;;6.85;;
69246;SDS011;56358;56.328;43.992;2023-02-11T17:19:49;25.70;;;6.78;;
69246;SDS011;56358;56.328;43.992;2023-02-11T17:21:51;16.20;;;6.93;;
69246;SDS011;56358;56.328;43.992;2023-02-11T17:23:52;19.77;;;6.25;;
69246;SDS011;56358;56.328;43.992;2023-02-11T17:25:55;20.80;;;7.28;;
69246;SDS011;56358;56.328;43.992;2023-02-11T17:27:56;19.33;;;6.72;;